Terminal Aerodrome Forecast
Issued by NWS

Home | Current Version | Previous Version | Text Only | Print | Product List | Glossary On
Versions: 1 2 3 4 5 6 7 8 9 10 11 12 13 14 15 16 17 18 19 20 21 22
000
FTUS46 KEKA 191818 AAA
TAFCEC
TAF AMD
KCEC 191818Z 1918/2018 16009KT P6SM -SHRA SCT025 OVC060
      TEMPO 1918/1921 2SM SHRA SCT015 BKN025
     FM192200 17010KT P6SM VCSH SCT025 BKN050
     FM200600 16015G25KT 6SM -RA SCT015 OVC040
     FM201100 16020G28KT 4SM RA SCT008 OVC020
     FM201700 16020G30KT 6SM -RA SCT015 OVC040=

USA.gov is the U.S. government's official web portal to all federal, state and local government web resources and services.